createdAt,value
2018-09-25T00:00:40.535Z,7.83
2018-09-25T00:01:40.541Z,7.60
2018-09-25T00:02:40.558Z,7.51
2018-09-25T00:03:40.577Z,7.51
2018-09-25T00:04:40.588Z,7.72
2018-09-25T00:05:40.609Z,7.58
2018-09-25T00:06:40.623Z,7.51
2018-09-25T00:07:40.634Z,7.50
2018-09-25T00:08:40.652Z,7.53
2018-09-25T00:09:40.682Z,7.54
2018-09-25T00:10:40.685Z,7.56
2018-09-25T00:11:40.724Z,7.82
2018-09-25T00:12:40.717Z,7.53
2018-09-25T00:13:40.730Z,7.66
2018-09-25T00:14:40.772Z,7.61
2018-09-25T00:15:40.767Z,7.72
2018-09-25T00:16:40.778Z,7.66
2018-09-25T00:17:40.793Z,7.63
2018-09-25T00:18:40.818Z,7.77
2018-09-25T00:19:40.822Z,7.73
2018-09-25T00:20:40.842Z,7.70
2018-09-25T00:21:40.861Z,7.50
2018-09-25T00:22:40.878Z,7.48
2018-09-25T00:23:40.897Z,7.38
2018-09-25T00:24:40.913Z,7.29
2018-09-25T00:25:40.919Z,7.28
2018-09-25T00:26:40.940Z,7.29
2018-09-25T00:27:40.955Z,7.35
2018-09-25T00:28:40.976Z,7.06
2018-09-25T00:29:40.991Z,7.00
2018-09-25T00:30:41.005Z,6.93
2018-09-25T00:31:41.023Z,6.70
2018-09-25T00:32:41.032Z,6.72
2018-09-25T00:33:41.040Z,6.66
2018-09-25T00:34:41.085Z,6.85
2018-09-25T00:35:41.081Z,6.96
2018-09-25T00:36:41.090Z,6.92
2018-09-25T00:37:41.100Z,6.70
2018-09-25T00:38:41.118Z,6.95
2018-09-25T00:39:41.131Z,7.02
2018-09-25T00:40:41.149Z,7.03
2018-09-25T00:41:41.172Z,7.00
2018-09-25T00:42:41.178Z,7.03
2018-09-25T00:43:41.196Z,7.11
2018-09-25T00:44:41.211Z,7.14
2018-09-25T00:45:41.225Z,7.23
2018-09-25T00:46:41.241Z,7.38
2018-09-25T00:47:41.261Z,7.33
2018-09-25T00:48:41.272Z,7.36
2018-09-25T00:49:41.283Z,7.40
2018-09-25T00:50:41.309Z,7.53
2018-09-25T00:51:41.316Z,7.48
2018-09-25T00:52:41.343Z,7.42
2018-09-25T00:53:41.377Z,7.43
2018-09-25T00:54:41.382Z,7.47
2018-09-25T00:55:41.379Z,7.38
2018-09-25T00:56:41.394Z,7.31
2018-09-25T00:57:41.436Z,7.33
2018-09-25T00:58:41.426Z,7.28
2018-09-25T00:59:41.441Z,7.20
2018-09-25T01:00:41.468Z,7.23
2018-09-25T01:01:41.477Z,7.18
2018-09-25T01:02:41.490Z,7.36
2018-09-25T01:03:41.504Z,7.18
2018-09-25T01:04:41.549Z,7.18
2018-09-25T01:05:41.540Z,7.13
2018-09-25T01:06:41.548Z,7.20
2018-09-25T01:07:41.566Z,7.21
2018-09-25T01:08:41.583Z,7.21
2018-09-25T01:09:41.596Z,7.20
2018-09-25T01:10:41.625Z,7.14
2018-09-25T01:11:41.636Z,7.11
2018-09-25T01:12:41.649Z,7.10
2018-09-25T01:13:41.681Z,6.99
2018-09-25T01:14:41.678Z,6.93
2018-09-25T01:15:41.698Z,6.84
2018-09-25T01:16:41.713Z,6.81
2018-09-25T01:17:41.731Z,6.99
2018-09-25T01:18:41.740Z,7.06
2018-09-25T01:19:41.752Z,7.17
2018-09-25T01:20:41.774Z,7.13
2018-09-25T01:21:41.789Z,7.10
2018-09-25T01:22:41.802Z,7.18
2018-09-25T01:23:41.814Z,6.99
2018-09-25T01:24:41.839Z,7.00
2018-09-25T01:25:41.849Z,6.95
2018-09-25T01:26:41.854Z,7.17
2018-09-25T01:27:41.869Z,7.21
2018-09-25T01:28:41.889Z,7.32
2018-09-25T01:29:41.904Z,7.35
2018-09-25T01:30:41.920Z,7.28
2018-09-25T01:31:41.934Z,7.15
2018-09-25T01:32:41.950Z,7.28
2018-09-25T01:33:41.963Z,7.24
2018-09-25T01:34:42.003Z,7.36
2018-09-25T01:35:41.998Z,7.28
2018-09-25T01:36:42.026Z,7.35
2018-09-25T01:37:42.026Z,7.24
2018-09-25T01:38:42.042Z,7.13
2018-09-25T01:39:42.065Z,7.17
2018-09-25T01:40:42.083Z,7.10
2018-09-25T01:41:42.101Z,6.96
2018-09-25T01:42:42.101Z,6.95
2018-09-25T01:43:42.129Z,6.88
2018-09-25T01:44:42.136Z,6.64
2018-09-25T01:45:42.163Z,6.60
2018-09-25T01:46:42.172Z,6.56
2018-09-25T01:47:42.181Z,6.75
2018-09-25T01:48:42.211Z,6.48
2018-09-25T01:49:42.207Z,6.41
2018-09-25T01:50:42.231Z,6.38
2018-09-25T01:51:42.242Z,6.22
2018-09-25T01:52:42.257Z,6.28
2018-09-25T01:53:42.273Z,6.27
2018-09-25T01:54:42.285Z,6.14
2018-09-25T01:55:42.305Z,6.27
2018-09-25T01:56:42.315Z,6.54
2018-09-25T01:57:42.332Z,6.46
2018-09-25T01:58:42.352Z,6.33
2018-09-25T01:59:42.364Z,6.27
2018-09-25T02:00:42.374Z,6.11
2018-09-25T02:01:42.390Z,6.39
2018-09-25T02:02:42.414Z,6.30
2018-09-25T02:03:42.434Z,6.26
2018-09-25T02:04:42.440Z,6.39
2018-09-25T02:05:42.485Z,6.52
2018-09-25T02:06:42.470Z,6.46
2018-09-25T02:07:42.485Z,6.60
2018-09-25T02:08:42.508Z,6.60
2018-09-25T02:09:42.543Z,6.70
2018-09-25T02:10:42.536Z,6.48
2018-09-25T02:11:42.546Z,6.45
2018-09-25T02:12:42.564Z,6.59
2018-09-25T02:13:42.574Z,6.56
2018-09-25T02:14:42.587Z,6.54
2018-09-25T02:15:42.617Z,6.45
2018-09-25T02:16:42.632Z,6.51
2018-09-25T02:17:42.643Z,6.44
2018-09-25T02:18:42.651Z,6.39
2018-09-25T02:19:42.670Z,6.33
2018-09-25T02:20:42.703Z,6.33
2018-09-25T02:21:42.696Z,6.20
2018-09-25T02:22:42.711Z,6.14
2018-09-25T02:23:42.735Z,6.38
2018-09-25T02:24:42.748Z,6.48
2018-09-25T02:25:42.762Z,6.51
2018-09-25T02:26:42.791Z,6.59
2018-09-25T02:27:42.795Z,6.52
2018-09-25T02:28:42.810Z,6.46
2018-09-25T02:29:42.828Z,6.41
2018-09-25T02:30:42.839Z,6.41
2018-09-25T02:31:42.850Z,6.28
2018-09-25T02:32:42.865Z,6.45
2018-09-25T02:33:42.881Z,6.49
2018-09-25T02:34:42.906Z,6.62
2018-09-25T02:35:42.915Z,6.77
2018-09-25T02:36:42.924Z,6.67
2018-09-25T02:37:42.951Z,6.75
2018-09-25T02:38:42.961Z,6.92
2018-09-25T02:39:42.981Z,6.81
2018-09-25T02:40:42.991Z,6.82
2018-09-25T02:41:42.997Z,6.67
2018-09-25T02:42:43.014Z,6.69
2018-09-25T02:43:43.028Z,6.70
2018-09-25T02:44:43.047Z,6.79
2018-09-25T02:45:43.063Z,6.70
2018-09-25T02:46:43.085Z,6.66
2018-09-25T02:47:43.090Z,6.84
2018-09-25T02:48:43.106Z,6.75
2018-09-25T02:49:43.121Z,6.75
2018-09-25T02:50:43.156Z,6.85
2018-09-25T02:51:43.161Z,6.77
2018-09-25T02:52:43.176Z,6.87
2018-09-25T02:53:43.179Z,6.56
2018-09-25T02:54:43.211Z,6.69
2018-09-25T02:55:43.214Z,6.54
2018-09-25T02:56:43.232Z,6.56
2018-09-25T02:57:43.247Z,6.44
2018-09-25T02:58:43.259Z,6.46
2018-09-25T02:59:43.272Z,6.33
2018-09-25T03:00:43.299Z,5.99
2018-09-25T03:01:43.303Z,5.87
2018-09-25T03:02:43.325Z,5.90
2018-09-25T03:03:43.341Z,6.01
2018-09-25T03:04:43.359Z,6.24
2018-09-25T03:05:43.369Z,6.41
2018-09-25T03:06:43.380Z,6.22
2018-09-25T03:07:43.402Z,5.97
2018-09-25T03:08:43.404Z,5.97
2018-09-25T03:09:43.421Z,5.83
2018-09-25T03:10:43.436Z,5.82
2018-09-25T03:11:43.451Z,5.64
2018-09-25T03:12:43.475Z,5.69
2018-09-25T03:13:43.487Z,5.79
2018-09-25T03:14:43.506Z,5.75
2018-09-25T03:15:43.519Z,5.71
2018-09-25T03:16:43.572Z,5.94
2018-09-25T03:17:43.543Z,5.99
2018-09-25T03:18:43.561Z,6.07
2018-09-25T03:19:43.575Z,6.14
2018-09-25T03:20:43.583Z,6.28
2018-09-25T03:21:43.611Z,6.26
2018-09-25T03:22:43.620Z,6.49
2018-09-25T03:23:43.636Z,6.49
2018-09-25T03:24:43.649Z,6.57
2018-09-25T03:25:43.693Z,6.51
2018-09-25T03:26:43.684Z,6.36
2018-09-25T03:27:43.714Z,6.36
2018-09-25T03:28:43.716Z,6.28
2018-09-25T03:29:43.760Z,6.24
2018-09-25T03:30:43.756Z,6.16
2018-09-25T03:31:43.781Z,6.05
2018-09-25T03:32:43.772Z,6.19
2018-09-25T03:33:43.791Z,6.20
2018-09-25T03:34:43.812Z,6.30
2018-09-25T03:35:43.822Z,6.31
2018-09-25T03:36:43.841Z,6.39
2018-09-25T03:37:43.844Z,6.22
2018-09-25T03:38:43.879Z,6.33
2018-09-25T03:39:43.892Z,6.39
2018-09-25T03:40:43.889Z,6.35
2018-09-25T03:41:43.914Z,6.49
2018-09-25T03:42:43.919Z,6.49
2018-09-25T03:43:43.930Z,6.44
2018-09-25T03:44:43.958Z,6.24
2018-09-25T03:45:43.983Z,6.30
2018-09-25T03:46:44.001Z,6.49
2018-09-25T03:47:44.016Z,6.62
2018-09-25T03:48:44.013Z,6.48
2018-09-25T03:49:44.042Z,6.51
2018-09-25T03:50:44.043Z,6.48
2018-09-25T03:51:44.059Z,6.27
2018-09-25T03:52:44.073Z,6.14
2018-09-25T03:53:44.099Z,6.41
2018-09-25T03:54:44.113Z,6.45
2018-09-25T03:55:44.111Z,6.31
2018-09-25T03:56:44.153Z,6.28
2018-09-25T03:57:44.159Z,6.28
2018-09-25T03:58:44.159Z,6.27
2018-09-25T03:59:44.232Z,6.31
2018-09-25T04:00:44.193Z,6.12
2018-09-25T04:01:44.199Z,5.94
2018-09-25T04:02:44.220Z,5.79
2018-09-25T04:03:44.248Z,5.80
2018-09-25T04:04:44.270Z,5.75
2018-09-25T04:05:44.272Z,5.65
2018-09-25T04:06:44.274Z,5.72
2018-09-25T04:07:44.288Z,5.54
2018-09-25T04:08:44.303Z,5.46
2018-09-25T04:09:44.323Z,5.59
2018-09-25T04:10:44.341Z,5.82
2018-09-25T04:11:44.373Z,5.87
2018-09-25T04:12:44.389Z,5.83
2018-09-25T04:13:44.394Z,5.89
2018-09-25T04:14:44.408Z,6.01
2018-09-25T04:15:44.408Z,6.17
2018-09-25T04:16:44.425Z,6.08
2018-09-25T04:17:44.452Z,6.17
2018-09-25T04:18:44.459Z,5.94
2018-09-25T04:19:44.488Z,6.07
2018-09-25T04:20:44.487Z,6.14
2018-09-25T04:21:44.499Z,6.26
2018-09-25T04:22:44.526Z,6.30
2018-09-25T04:23:44.530Z,6.27
2018-09-25T04:24:44.542Z,6.26
2018-09-25T04:25:44.564Z,6.33
2018-09-25T04:26:44.579Z,6.30
2018-09-25T04:27:44.613Z,6.26
2018-09-25T04:28:44.618Z,6.24
2018-09-25T04:29:44.639Z,6.42
2018-09-25T04:30:44.644Z,6.28
2018-09-25T04:31:44.660Z,6.30
2018-09-25T04:32:44.666Z,6.28
2018-09-25T04:33:44.679Z,6.27
2018-09-25T04:34:44.699Z,6.14
2018-09-25T04:35:44.716Z,6.02
2018-09-25T04:36:44.729Z,5.94
2018-09-25T04:37:44.744Z,5.94
2018-09-25T04:38:44.768Z,5.83
2018-09-25T04:39:44.771Z,5.94
2018-09-25T04:40:44.812Z,5.98
2018-09-25T04:41:44.802Z,5.86
2018-09-25T04:42:44.817Z,5.86
2018-09-25T04:43:44.831Z,5.73
2018-09-25T04:44:44.856Z,5.66
2018-09-25T04:45:44.868Z,5.68
2018-09-25T04:46:44.870Z,5.86
2018-09-25T04:47:44.908Z,5.82
2018-09-25T04:48:44.920Z,5.71
2018-09-25T04:49:44.947Z,5.79
2018-09-25T04:50:44.989Z,5.62
2018-09-25T04:51:44.946Z,5.47
2018-09-25T04:52:44.965Z,5.29
2018-09-25T04:53:44.986Z,5.32
2018-09-25T04:54:44.991Z,5.39
2018-09-25T04:55:45.009Z,5.33
2018-09-25T04:56:45.021Z,5.35
2018-09-25T04:57:45.047Z,5.28
2018-09-25T04:58:45.064Z,5.32
2018-09-25T04:59:45.075Z,5.50
2018-09-25T05:00:45.097Z,5.56
2018-09-25T05:01:45.099Z,5.51
2018-09-25T05:02:45.117Z,5.64
2018-09-25T05:03:45.128Z,5.71
2018-09-25T05:04:45.136Z,5.73
2018-09-25T05:05:45.161Z,5.82
2018-09-25T05:06:45.253Z,5.99
2018-09-25T05:07:45.180Z,6.05
2018-09-25T05:08:45.201Z,5.90
2018-09-25T05:09:45.219Z,5.84
2018-09-25T05:10:45.230Z,5.84
2018-09-25T05:11:45.244Z,5.80
2018-09-25T05:12:45.260Z,5.82
2018-09-25T05:13:45.273Z,5.79
2018-09-25T05:14:45.337Z,5.69
2018-09-25T05:15:45.305Z,5.69
2018-09-25T05:16:45.315Z,5.54
2018-09-25T05:17:45.327Z,5.44
2018-09-25T05:18:45.347Z,5.39
2018-09-25T05:19:45.356Z,5.39
2018-09-25T05:20:45.382Z,5.44
2018-09-25T05:21:45.401Z,5.59
2018-09-25T05:22:45.408Z,5.51
2018-09-25T05:23:45.431Z,5.61
2018-09-25T05:24:45.483Z,5.68
2018-09-25T05:25:45.446Z,5.47
2018-09-25T05:26:45.466Z,5.46
2018-09-25T05:27:45.475Z,5.54
2018-09-25T05:28:45.520Z,5.59
2018-09-25T05:29:45.525Z,5.41
2018-09-25T05:30:45.520Z,5.61
2018-09-25T05:31:45.555Z,5.86
2018-09-25T05:32:45.560Z,5.86
2018-09-25T05:33:45.568Z,5.84
2018-09-25T05:34:45.629Z,5.97
2018-09-25T05:35:45.621Z,6.05
2018-09-25T05:36:45.611Z,6.12
2018-09-25T05:37:45.656Z,6.22
2018-09-25T05:38:45.646Z,6.42
2018-09-25T05:39:45.665Z,6.51
2018-09-25T05:40:45.677Z,6.52
2018-09-25T05:41:45.688Z,6.41
2018-09-25T05:42:45.704Z,6.57
2018-09-25T05:43:45.717Z,6.67
2018-09-25T05:44:45.738Z,6.70
2018-09-25T05:45:45.747Z,6.84
2018-09-25T05:46:45.765Z,6.79
2018-09-25T05:47:45.772Z,6.88
2018-09-25T05:48:45.871Z,6.92
2018-09-25T05:49:45.810Z,7.00
2018-09-25T05:50:45.825Z,6.92
2018-09-25T05:51:45.835Z,7.06
2018-09-25T05:52:45.858Z,7.20
2018-09-25T05:53:45.872Z,7.42
2018-09-25T05:54:45.891Z,7.47
2018-09-25T05:55:45.935Z,7.60
2018-09-25T05:56:45.939Z,8.09
2018-09-25T05:57:45.934Z,8.01
2018-09-25T05:58:45.945Z,8.00
2018-09-25T05:59:45.961Z,8.56
2018-09-25T06:00:45.985Z,9.14
2018-09-25T06:01:46.001Z,9.68
2018-09-25T06:02:46.012Z,9.89
2018-09-25T06:03:46.042Z,9.54
2018-09-25T06:04:46.046Z,9.79
2018-09-25T06:05:46.061Z,10.35
2018-09-25T06:06:46.079Z,10.79
2018-09-25T06:07:46.093Z,11.35
2018-09-25T06:08:46.122Z,11.48
2018-09-25T06:09:46.148Z,11.52
2018-09-25T06:10:46.151Z,11.23
2018-09-25T06:11:46.172Z,11.40
2018-09-25T06:12:46.186Z,11.11
2018-09-25T06:13:46.202Z,11.15
2018-09-25T06:14:46.219Z,10.78
2018-09-25T06:15:46.274Z,10.79
2018-09-25T06:16:46.270Z,10.46
2018-09-25T06:17:46.283Z,10.92
2018-09-25T06:18:46.327Z,11.14
2018-09-25T06:19:46.305Z,11.02
2018-09-25T06:20:46.336Z,11.72
2018-09-25T06:21:46.350Z,12.67
2018-09-25T06:22:46.406Z,13.41
2018-09-25T06:23:46.387Z,14.05
2018-09-25T06:24:46.399Z,14.30
2018-09-25T06:25:46.418Z,14.36
2018-09-25T06:26:46.440Z,14.35
2018-09-25T06:27:46.457Z,14.62
2018-09-25T06:28:46.490Z,14.69
2018-09-25T06:29:46.499Z,14.96
2018-09-25T06:30:46.517Z,15.00
2018-09-25T06:31:46.552Z,14.89
2018-09-25T06:32:46.569Z,14.73
2018-09-25T06:33:46.578Z,14.55
2018-09-25T06:34:46.640Z,14.25
2018-09-25T06:35:46.619Z,14.22
2018-09-25T06:36:46.644Z,14.51
2018-09-25T06:37:46.666Z,13.22
2018-09-25T06:38:46.685Z,12.61
2018-09-25T06:39:46.700Z,12.65
2018-09-25T06:40:46.747Z,12.79
2018-09-25T06:41:46.734Z,12.25
2018-09-25T06:42:46.758Z,12.27
2018-09-25T06:43:46.783Z,12.46
2018-09-25T06:44:46.811Z,12.35
2018-09-25T06:45:46.822Z,12.12
2018-09-25T06:46:46.837Z,12.06
2018-09-25T06:47:46.860Z,12.21
2018-09-25T06:48:46.879Z,12.24
2018-09-25T06:49:46.898Z,12.43
2018-09-25T06:50:46.919Z,12.58
2018-09-25T06:51:46.933Z,12.32
2018-09-25T06:52:46.956Z,11.83
2018-09-25T06:53:46.979Z,11.59
2018-09-25T06:54:47.029Z,11.90
2018-09-25T06:55:47.012Z,12.28
2018-09-25T06:56:47.033Z,12.31
2018-09-25T06:57:47.056Z,12.40
2018-09-25T06:58:47.071Z,12.95
2018-09-25T06:59:47.096Z,12.97
2018-09-25T07:00:47.137Z,12.82
2018-09-25T07:01:47.128Z,13.15
2018-09-25T07:02:47.174Z,13.56
2018-09-25T07:03:47.167Z,14.26
2018-09-25T07:04:47.192Z,14.97
2018-09-25T07:05:47.211Z,15.59
2018-09-25T07:06:47.229Z,15.43
2018-09-25T07:07:47.269Z,15.35
2018-09-25T07:08:47.264Z,16.24
2018-09-25T07:09:47.409Z,16.64
2018-09-25T07:10:47.312Z,17.27
2018-09-25T07:11:47.337Z,17.86
2018-09-25T07:12:47.349Z,18.33
2018-09-25T07:13:47.375Z,18.73
2018-09-25T07:14:47.393Z,18.90
2018-09-25T07:15:47.413Z,19.18
2018-09-25T07:16:47.437Z,19.21
2018-09-25T07:17:47.539Z,19.82
2018-09-25T07:18:47.479Z,19.73
2018-09-25T07:19:47.496Z,19.73
2018-09-25T07:20:47.518Z,19.73
2018-09-25T07:21:47.558Z,19.62
2018-09-25T07:22:47.626Z,19.33
2018-09-25T07:23:47.584Z,17.94
2018-09-25T07:24:47.679Z,17.74
2018-09-25T07:25:47.628Z,18.08
2018-09-25T07:26:47.654Z,18.88
2018-09-25T07:27:47.687Z,19.39
2018-09-25T07:28:47.712Z,19.33
2018-09-25T07:29:47.721Z,20.18
2018-09-25T07:30:47.751Z,21.00
2018-09-25T07:31:47.768Z,21.35
2018-09-25T07:32:47.793Z,18.88
2018-09-25T07:33:47.811Z,17.78
2018-09-25T07:34:47.842Z,17.76
2018-09-25T07:35:47.856Z,17.72
2018-09-25T07:36:47.890Z,18.03
2018-09-25T07:37:47.900Z,18.05
2018-09-25T07:38:47.921Z,18.01
2018-09-25T07:39:48.046Z,19.91
2018-09-25T07:40:47.980Z,20.03
2018-09-25T07:41:47.994Z,18.92
2018-09-25T07:42:48.015Z,18.77
2018-09-25T07:43:48.050Z,19.11
2018-09-25T07:44:48.061Z,18.58
2018-09-25T07:45:48.095Z,18.07
2018-09-25T07:46:48.113Z,17.46
2018-09-25T07:47:48.125Z,17.36
2018-09-25T07:48:48.148Z,17.41
2018-09-25T07:49:48.192Z,16.58
2018-09-25T07:50:48.202Z,17.23
2018-09-25T07:51:48.219Z,18.31
2018-09-25T07:52:48.255Z,18.38
2018-09-25T07:53:48.267Z,18.34
2018-09-25T07:54:48.291Z,19.24
2018-09-25T07:55:48.317Z,18.60
2018-09-25T07:56:48.340Z,17.67
2018-09-25T07:57:48.356Z,17.67
2018-09-25T07:58:48.387Z,17.92
2018-09-25T07:59:48.404Z,18.99
2018-09-25T08:00:48.427Z,18.86
2018-09-25T08:01:48.453Z,19.19
2018-09-25T08:02:48.471Z,18.90
2018-09-25T08:03:48.502Z,18.99
2018-09-25T08:04:48.517Z,18.93
2018-09-25T08:05:48.541Z,18.53
2018-09-25T08:06:48.565Z,18.35
2018-09-25T08:07:48.589Z,18.60
2018-09-25T08:08:48.613Z,19.04
2018-09-25T08:09:48.639Z,18.50
2018-09-25T08:10:48.651Z,19.11
2018-09-25T08:11:48.676Z,18.60
2018-09-25T08:12:48.693Z,17.76
2018-09-25T08:13:48.722Z,17.70
2018-09-25T08:14:48.740Z,17.42
2018-09-25T08:15:48.776Z,17.52
2018-09-25T08:16:48.789Z,18.18
2018-09-25T08:17:48.812Z,19.89
2018-09-25T08:18:48.828Z,20.19
2018-09-25T08:19:48.855Z,18.62
2018-09-25T08:20:48.871Z,17.48
2018-09-25T08:21:48.895Z,17.68
2018-09-25T08:22:48.924Z,16.60
2018-09-25T08:23:48.938Z,16.10
2018-09-25T08:24:48.958Z,15.90
2018-09-25T08:25:48.984Z,15.55
2018-09-25T08:26:49.005Z,15.70
2018-09-25T08:27:49.038Z,15.47
2018-09-25T08:28:49.036Z,14.81
2018-09-25T08:29:49.122Z,14.43
2018-09-25T08:30:49.104Z,15.10
2018-09-25T08:31:49.105Z,15.27
2018-09-25T08:32:49.123Z,15.06
2018-09-25T08:33:49.142Z,14.48
2018-09-25T08:34:49.261Z,14.08
2018-09-25T08:35:49.180Z,14.50
2018-09-25T08:36:49.210Z,15.10
2018-09-25T08:37:49.216Z,14.88
2018-09-25T08:38:49.340Z,14.78
2018-09-25T08:39:49.270Z,14.37
2018-09-25T08:40:49.276Z,14.03
2018-09-25T08:41:49.291Z,14.04
2018-09-25T08:42:49.324Z,14.15
2018-09-25T08:43:49.335Z,14.51
2018-09-25T08:44:49.348Z,14.10
2018-09-25T08:45:49.418Z,14.04
2018-09-25T08:46:49.401Z,14.11
2018-09-25T08:47:49.406Z,14.32
2018-09-25T08:48:49.453Z,14.18
2018-09-25T08:49:49.474Z,14.20
2018-09-25T08:50:49.468Z,14.50
2018-09-25T08:51:49.484Z,14.55
2018-09-25T08:52:49.502Z,14.70
2018-09-25T08:53:49.527Z,14.48
2018-09-25T08:54:49.559Z,14.43
2018-09-25T08:55:49.558Z,14.68
2018-09-25T08:56:49.573Z,14.88
2018-09-25T08:57:49.598Z,14.94
2018-09-25T08:58:49.616Z,14.86
2018-09-25T08:59:49.632Z,14.79
2018-09-25T09:00:49.709Z,14.77
2018-09-25T09:01:49.679Z,14.53
2018-09-25T09:02:49.693Z,14.78
2018-09-25T09:03:49.724Z,14.55
2018-09-25T09:04:49.738Z,14.65
2018-09-25T09:05:49.763Z,14.84
2018-09-25T09:06:49.766Z,14.47
2018-09-25T09:07:49.777Z,14.70
2018-09-25T09:08:49.794Z,15.04
2018-09-25T09:09:49.822Z,15.35
2018-09-25T09:10:49.844Z,14.86
2018-09-25T09:11:49.867Z,15.22
2018-09-25T09:12:49.866Z,14.99
2018-09-25T09:13:49.904Z,15.00
2018-09-25T09:14:49.911Z,15.35
2018-09-25T09:15:49.925Z,15.00
2018-09-25T09:16:49.951Z,14.97
2018-09-25T09:17:49.955Z,15.22
2018-09-25T09:18:49.972Z,15.42
2018-09-25T09:19:50.085Z,15.31
2018-09-25T09:20:50.021Z,15.35
2018-09-25T09:21:50.044Z,15.86
2018-09-25T09:22:50.047Z,16.23
2018-09-25T09:23:50.061Z,16.33
2018-09-25T09:24:50.081Z,16.51
2018-09-25T09:25:50.120Z,16.96
2018-09-25T09:26:50.126Z,17.27
2018-09-25T09:27:50.139Z,17.26
2018-09-25T09:28:50.157Z,17.33
2018-09-25T09:29:50.179Z,16.83
2018-09-25T09:30:50.203Z,16.66
2018-09-25T09:31:50.230Z,16.69
2018-09-25T09:32:50.232Z,16.38
2018-09-25T09:33:50.256Z,16.00
2018-09-25T09:34:50.264Z,16.16
2018-09-25T09:35:50.287Z,16.12
2018-09-25T09:36:50.300Z,15.59
2018-09-25T09:37:50.344Z,15.44
2018-09-25T09:38:50.352Z,16.04
2018-09-25T09:39:50.387Z,16.81
2018-09-25T09:40:50.411Z,16.87
2018-09-25T09:41:50.585Z,16.47
2018-09-25T09:42:50.428Z,15.97
2018-09-25T09:43:50.446Z,16.01
2018-09-25T09:44:50.455Z,16.41
2018-09-25T09:45:50.496Z,16.91
2018-09-25T09:46:50.493Z,17.36
2018-09-25T09:47:50.515Z,17.36
2018-09-25T09:48:50.531Z,17.67
2018-09-25T09:49:50.547Z,17.44
2018-09-25T09:50:50.580Z,17.74
2018-09-25T09:51:50.585Z,18.05
2018-09-25T09:52:50.605Z,17.98
2018-09-25T09:53:50.621Z,18.47
2018-09-25T09:54:50.651Z,18.66
2018-09-25T09:55:50.672Z,18.31
2018-09-25T09:56:50.693Z,18.04
2018-09-25T09:57:50.704Z,18.07
2018-09-25T09:58:50.753Z,17.98
2018-09-25T09:59:50.742Z,17.48
2018-09-25T10:00:50.763Z,17.41
2018-09-25T10:01:50.777Z,17.52
2018-09-25T10:02:50.817Z,17.85
2018-09-25T10:03:50.817Z,17.94
2018-09-25T10:04:50.838Z,17.70
2018-09-25T10:05:50.867Z,17.56
2018-09-25T10:06:50.923Z,17.67
2018-09-25T10:07:50.898Z,17.89
2018-09-25T10:08:50.912Z,18.29
2018-09-25T10:09:50.935Z,18.45
2018-09-25T10:10:50.962Z,18.98
2018-09-25T10:11:50.977Z,19.41
2018-09-25T10:12:50.992Z,19.52
2018-09-25T10:13:51.026Z,19.47
2018-09-25T10:14:51.036Z,19.19
2018-09-25T10:15:51.053Z,19.14
2018-09-25T10:16:51.068Z,18.78
2018-09-25T10:17:51.089Z,18.41
2018-09-25T10:18:51.167Z,18.05
2018-09-25T10:19:51.139Z,18.19
2018-09-25T10:20:51.148Z,17.94
2018-09-25T10:21:51.172Z,18.01
2018-09-25T10:22:51.189Z,17.83
2018-09-25T10:23:51.233Z,17.57
2018-09-25T10:24:51.233Z,17.33
2018-09-25T10:25:51.256Z,16.68
2018-09-25T10:26:51.267Z,16.57
2018-09-25T10:27:51.289Z,16.72
2018-09-25T10:28:51.304Z,16.81
2018-09-25T10:29:51.331Z,17.01
2018-09-25T10:30:51.346Z,17.27
2018-09-25T10:31:51.363Z,17.02
2018-09-25T10:32:51.391Z,17.08
2018-09-25T10:33:51.444Z,17.15
2018-09-25T10:34:51.428Z,17.27
2018-09-25T10:35:51.440Z,17.15
2018-09-25T10:36:51.461Z,16.91
2018-09-25T10:37:51.473Z,16.89
2018-09-25T10:38:51.495Z,16.96
2018-09-25T10:39:51.512Z,16.66
2018-09-25T10:40:51.602Z,16.74
2018-09-25T10:41:51.556Z,16.74
2018-09-25T10:42:51.594Z,16.66
2018-09-25T10:43:51.589Z,17.08
2018-09-25T10:44:51.608Z,16.96
2018-09-25T10:45:51.641Z,16.83
2018-09-25T10:46:51.653Z,17.12
2018-09-25T10:47:51.675Z,17.24
2018-09-25T10:48:51.690Z,17.41
2018-09-25T10:49:51.741Z,17.51
2018-09-25T10:50:51.727Z,18.13
2018-09-25T10:51:51.755Z,17.64
2018-09-25T10:52:51.760Z,17.44
2018-09-25T10:53:51.784Z,17.64
2018-09-25T10:54:51.801Z,17.83
2018-09-25T10:55:51.956Z,17.95
2018-09-25T10:56:51.848Z,17.79
2018-09-25T10:57:51.862Z,17.72
2018-09-25T10:58:51.880Z,17.67
2018-09-25T10:59:51.899Z,18.22
2018-09-25T11:00:51.914Z,18.26
2018-09-25T11:01:51.939Z,18.07
2018-09-25T11:02:52.012Z,18.34
2018-09-25T11:03:51.971Z,18.33
2018-09-25T11:04:52.001Z,18.43
2018-09-25T11:05:52.015Z,18.63
2018-09-25T11:06:52.033Z,18.63
2018-09-25T11:07:52.056Z,18.49
2018-09-25T11:08:52.071Z,18.45
2018-09-25T11:09:52.105Z,18.60
2018-09-25T11:10:52.121Z,18.86
2018-09-25T11:11:52.157Z,18.60
2018-09-25T11:12:52.169Z,18.29
2018-09-25T11:13:52.166Z,18.40
2018-09-25T11:14:52.185Z,18.15
2018-09-25T11:15:52.210Z,18.25
2018-09-25T11:16:52.230Z,18.04
2018-09-25T11:17:52.252Z,18.01
2018-09-25T11:18:52.265Z,18.03
2018-09-25T11:19:52.297Z,17.97
2018-09-25T11:20:52.306Z,17.98
2018-09-25T11:21:52.324Z,17.65
2018-09-25T11:22:52.343Z,17.71
2018-09-25T11:23:52.380Z,17.65
2018-09-25T11:24:52.383Z,17.92
2018-09-25T11:25:52.403Z,18.03
2018-09-25T11:26:52.425Z,17.98
2018-09-25T11:27:52.441Z,18.18
2018-09-25T11:28:52.461Z,18.19
2018-09-25T11:29:52.480Z,18.43
2018-09-25T11:30:52.498Z,18.38
2018-09-25T11:31:52.526Z,18.89
2018-09-25T11:32:52.536Z,18.50
2018-09-25T11:33:52.560Z,17.76
2018-09-25T11:34:52.591Z,18.00
2018-09-25T11:35:52.607Z,18.18
2018-09-25T11:36:52.612Z,18.05
2018-09-25T11:37:52.640Z,18.10
2018-09-25T11:38:52.660Z,18.28
2018-09-25T11:39:52.682Z,18.25
2018-09-25T11:40:52.750Z,18.04
2018-09-25T11:41:52.715Z,17.98
2018-09-25T11:42:52.736Z,17.98
2018-09-25T11:43:52.754Z,18.04
2018-09-25T11:44:52.787Z,17.87
2018-09-25T11:45:52.821Z,17.86
2018-09-25T11:46:52.912Z,17.79
2018-09-25T11:47:52.843Z,17.56
2018-09-25T11:48:52.851Z,17.74
2018-09-25T11:49:52.952Z,17.49
2018-09-25T11:50:52.908Z,17.97
2018-09-25T11:51:52.910Z,18.05
2018-09-25T11:52:52.957Z,18.40
2018-09-25T11:53:52.947Z,18.88
2018-09-25T11:54:52.965Z,18.84
2018-09-25T11:55:52.985Z,18.60
2018-09-25T11:56:53.022Z,18.99
2018-09-25T11:57:53.032Z,19.18
2018-09-25T11:58:53.048Z,19.37
2018-09-25T11:59:53.108Z,18.99
2018-09-25T12:00:53.084Z,19.19
2018-09-25T12:01:53.114Z,19.09
2018-09-25T12:02:53.134Z,18.96
2018-09-25T12:03:53.151Z,19.21
2018-09-25T12:04:53.173Z,19.16
2018-09-25T12:05:53.182Z,19.07
2018-09-25T12:06:53.215Z,19.15
2018-09-25T12:07:53.231Z,19.14
2018-09-25T12:08:53.248Z,19.19
2018-09-25T12:09:53.265Z,19.21
2018-09-25T12:10:53.292Z,19.55
2018-09-25T12:11:53.310Z,19.81
2018-09-25T12:12:53.327Z,19.94
2018-09-25T12:13:53.418Z,19.86
2018-09-25T12:14:53.392Z,19.94
2018-09-25T12:15:53.402Z,19.70
2018-09-25T12:16:53.411Z,19.91
2018-09-25T12:17:53.434Z,19.45
2018-09-25T12:18:53.446Z,19.45
2018-09-25T12:19:53.484Z,19.36
2018-09-25T12:20:53.488Z,19.15
2018-09-25T12:21:53.502Z,19.37
2018-09-25T12:22:53.526Z,19.29
2018-09-25T12:23:53.545Z,19.36
2018-09-25T12:24:53.577Z,18.83
2018-09-25T12:25:53.599Z,18.92
2018-09-25T12:26:53.610Z,18.89
2018-09-25T12:27:53.624Z,19.11
2018-09-25T12:28:53.645Z,19.19
2018-09-25T12:29:53.668Z,19.26
2018-09-25T12:30:53.691Z,18.99
2018-09-25T12:31:53.708Z,18.66
2018-09-25T12:32:53.783Z,18.58
2018-09-25T12:33:53.814Z,18.80
2018-09-25T12:34:53.780Z,19.07
2018-09-25T12:35:53.786Z,18.80
2018-09-25T12:36:53.802Z,18.53
2018-09-25T12:37:53.829Z,18.60
2018-09-25T12:38:53.845Z,18.10
2018-09-25T12:39:53.899Z,18.25
2018-09-25T12:40:53.896Z,18.23
2018-09-25T12:41:53.911Z,18.25
2018-09-25T12:42:53.939Z,18.43
2018-09-25T12:43:53.946Z,18.63
2018-09-25T12:44:53.978Z,18.60
2018-09-25T12:45:53.984Z,18.56
2018-09-25T12:46:53.999Z,18.38
2018-09-25T12:47:54.017Z,18.70
2018-09-25T12:48:54.040Z,18.44
2018-09-25T12:49:54.057Z,18.41
2018-09-25T12:50:54.090Z,18.50
2018-09-25T12:51:54.097Z,18.33
2018-09-25T12:52:54.117Z,18.55
2018-09-25T12:53:54.136Z,18.58
2018-09-25T12:54:54.159Z,18.22
2018-09-25T12:55:54.178Z,17.74
2018-09-25T12:56:54.193Z,18.08
2018-09-25T12:57:54.214Z,18.38
2018-09-25T12:58:54.245Z,18.59
2018-09-25T12:59:54.248Z,18.75
2018-09-25T13:00:54.293Z,18.56
2018-09-25T13:01:54.288Z,18.07
2018-09-25T13:02:54.316Z,18.25
2018-09-25T13:03:54.393Z,18.05
2018-09-25T13:04:54.366Z,18.25